Time;durP1;ratioP1;P1;durP2;ratioP2;P2;SDS_P1;SDS_P2;PMS_P1;PMS_P2;Temp;Humidity;BMP_temperature;BMP_pressure;BME280_temperature;BME280_humidity;BME280_pressure;Samples;Min_cycle;Max_cycle;Signal;HPM_P1;HPM_P2
2023/10/28 00:00:30;;;;;;;155.20;143.23;;;10.40;99.90;;;;;;5035638;28;20416;-77
2023/10/28 00:02:56;;;;;;;188.53;175.27;;;10.40;99.90;;;;;;5035568;28;20185;-77
2023/10/28 00:05:24;;;;;;;179.52;166.68;;;10.30;99.90;;;;;;5035623;28;20404;-77
2023/10/28 00:07:50;;;;;;;161.20;148.90;;;10.30;99.90;;;;;;5035791;28;20162;-77
2023/10/28 00:10:16;;;;;;;167.67;155.47;;;10.30;99.90;;;;;;5035501;28;20189;-77
2023/10/28 00:12:41;;;;;;;169.00;156.77;;;10.40;99.90;;;;;;5035371;28;20515;-77
2023/10/28 00:15:08;;;;;;;159.33;147.27;;;10.40;99.90;;;;;;5035410;28;20181;-77
2023/10/28 00:17:33;;;;;;;165.93;153.82;;;10.50;99.90;;;;;;5035930;28;20174;-77
2023/10/28 00:20:04;;;;;;;149.57;138.47;;;10.50;99.90;;;;;;5035537;28;20207;-77
2023/10/28 00:22:31;;;;;;;171.48;159.13;;;10.50;99.90;;;;;;5035644;28;20186;-77
2023/10/28 00:24:58;;;;;;;186.32;173.43;;;10.50;99.90;;;;;;5035574;28;20178;-77
2023/10/28 00:27:24;;;;;;;172.85;160.25;;;10.50;99.90;;;;;;5035355;28;20178;-77
2023/10/28 00:29:52;;;;;;;145.80;134.30;;;10.50;99.90;;;;;;5035387;28;20538;-77
2023/10/28 00:32:22;;;;;;;153.57;142.30;;;10.50;99.90;;;;;;5035872;28;20197;-77
2023/10/28 00:34:49;;;;;;;125.28;115.13;;;10.50;99.90;;;;;;5036515;28;20188;-77
2023/10/28 00:37:15;;;;;;;149.70;138.00;;;10.50;99.90;;;;;;5035940;28;20164;-77
2023/10/28 00:39:42;;;;;;;156.93;145.10;;;10.50;99.90;;;;;;5035598;28;20261;-77
2023/10/28 00:42:13;;;;;;;165.07;153.07;;;10.60;99.90;;;;;;5035864;28;20158;-77
2023/10/28 00:44:41;;;;;;;164.45;152.35;;;10.60;99.90;;;;;;5035541;28;20146;-77
2023/10/28 00:47:07;;;;;;;160.70;149.25;;;10.60;99.90;;;;;;5035092;28;20170;-77
2023/10/28 00:49:33;;;;;;;161.07;148.63;;;10.60;99.90;;;;;;5035425;28;20169;-77
2023/10/28 00:51:59;;;;;;;154.00;142.40;;;10.60;99.90;;;;;;5034973;28;20663;-77
2023/10/28 00:54:25;;;;;;;166.03;154.10;;;10.60;99.90;;;;;;5034664;28;20192;-77
2023/10/28 00:56:53;;;;;;;137.60;126.85;;;10.60;99.90;;;;;;5034090;28;20412;-76
2023/10/28 00:59:19;;;;;;;150.95;139.35;;;10.60;99.90;;;;;;5017084;28;20201;-77
2023/10/28 01:01:44;;;;;;;161.07;149.27;;;10.60;99.90;;;;;;5034683;28;20166;-77
2023/10/28 01:04:10;;;;;;;121.90;112.03;;;10.60;99.90;;;;;;5034575;28;20666;-77
2023/10/28 01:06:38;;;;;;;130.73;120.20;;;10.70;99.90;;;;;;5034957;28;20296;-77
2023/10/28 01:09:03;;;;;;;131.25;120.80;;;10.70;99.90;;;;;;5017397;28;20181;-77
2023/10/28 01:11:29;;;;;;;136.73;126.17;;;10.70;99.90;;;;;;5034706;28;20169;-77
2023/10/28 01:13:55;;;;;;;137.53;126.27;;;10.70;99.90;;;;;;5034873;28;20265;-77
2023/10/28 01:16:22;;;;;;;114.53;104.93;;;10.70;99.90;;;;;;5034308;28;20166;-77
2023/10/28 01:18:55;;;;;;;122.50;112.50;;;10.70;99.90;;;;;;5034653;28;20539;-77
2023/10/28 01:21:21;;;;;;;119.82;110.05;;;10.70;99.90;;;;;;5034795;28;20648;-77
2023/10/28 01:23:46;;;;;;;113.77;104.07;;;10.70;99.90;;;;;;5034990;28;20182;-77
2023/10/28 01:26:12;;;;;;;122.70;112.80;;;10.70;99.90;;;;;;5017386;28;20906;-77
2023/10/28 01:28:41;;;;;;;121.97;111.73;;;10.80;99.90;;;;;;5035078;28;20177;-77
2023/10/28 01:31:08;;;;;;;120.10;110.20;;;10.80;99.90;;;;;;5035265;28;20404;-77
2023/10/28 01:33:34;;;;;;;120.05;110.10;;;10.80;99.90;;;;;;5017433;28;20220;-77
2023/10/28 01:36:00;;;;;;;119.33;109.57;;;10.80;99.90;;;;;;5034531;28;20555;-77
2023/10/28 01:38:26;;;;;;;121.28;111.38;;;10.80;99.90;;;;;;5034475;28;20161;-77
2023/10/28 01:40:52;;;;;;;135.48;124.75;;;10.70;99.90;;;;;;5034378;28;20204;-77
2023/10/28 01:43:19;;;;;;;126.68;116.28;;;10.70;99.90;;;;;;5034800;28;20186;-77
2023/10/28 01:45:45;;;;;;;131.00;120.65;;;10.70;99.90;;;;;;5034586;28;20162;-77
2023/10/28 01:48:12;;;;;;;146.70;135.20;;;10.70;99.90;;;;;;5034737;28;20244;-77
2023/10/28 01:50:37;;;;;;;175.80;163.60;;;10.70;99.90;;;;;;5034759;28;20515;-77
2023/10/28 01:53:03;;;;;;;146.73;135.73;;;10.70;99.90;;;;;;5034372;28;20205;-77
2023/10/28 01:55:29;;;;;;;146.20;135.30;;;10.70;99.90;;;;;;5034972;28;20273;-77
2023/10/28 01:57:55;;;;;;;142.27;131.35;;;10.80;99.90;;;;;;5035136;28;20157;-77
2023/10/28 02:00:30;;;;;;;142.45;131.80;;;10.80;99.90;;;;;;5035187;28;20205;-77
2023/10/28 02:03:00;;;;;;;147.68;136.68;;;10.80;99.90;;;;;;5035865;28;20642;-77
2023/10/28 02:05:26;;;;;;;146.93;136.15;;;10.80;99.90;;;;;;5035753;28;20681;-77
2023/10/28 02:07:51;;;;;;;123.30;113.30;;;10.80;99.90;;;;;;5033641;28;20227;-77
2023/10/28 02:10:17;;;;;;;137.33;126.63;;;10.80;99.90;;;;;;5034819;28;20593;-77
2023/10/28 02:12:43;;;;;;;134.73;124.33;;;10.80;99.90;;;;;;5035169;28;20185;-77
2023/10/28 02:15:09;;;;;;;130.23;119.97;;;10.80;99.90;;;;;;5034752;28;20185;-77
2023/10/28 02:17:36;;;;;;;126.93;116.82;;;10.80;99.90;;;;;;5034700;28;20170;-77
2023/10/28 02:20:06;;;;;;;129.13;118.95;;;10.80;99.90;;;;;;5035259;28;20157;-77
2023/10/28 02:22:32;;;;;;;123.10;113.05;;;10.80;99.90;;;;;;5034563;28;20189;-77
2023/10/28 02:24:58;;;;;;;123.43;113.07;;;10.80;99.90;;;;;;5034847;28;20166;-77
2023/10/28 02:27:25;;;;;;;128.23;118.03;;;10.80;99.90;;;;;;5034602;28;20525;-77
2023/10/28 02:29:50;;;;;;;125.00;114.95;;;10.80;99.90;;;;;;5034912;28;20451;-77
2023/10/28 02:32:17;;;;;;;106.17;96.40;;;10.80;99.90;;;;;;5035391;28;20655;-77
2023/10/28 02:34:43;;;;;;;121.05;111.20;;;10.80;99.90;;;;;;5017119;28;20192;-77
2023/10/28 02:37:10;;;;;;;107.50;97.80;;;10.80;99.90;;;;;;5017449;28;20170;-77
2023/10/28 02:39:37;;;;;;;111.43;101.82;;;10.80;99.90;;;;;;5017403;28;20161;-77
2023/10/28 02:42:03;;;;;;;114.25;104.75;;;10.80;99.90;;;;;;5035263;28;20211;-77
2023/10/28 02:44:33;;;;;;;125.07;115.17;;;10.80;99.90;;;;;;5034817;28;20181;-78
2023/10/28 02:46:59;;;;;;;123.38;113.15;;;10.80;99.90;;;;;;5034765;28;20400;-77
2023/10/28 02:49:25;;;;;;;109.95;100.60;;;10.70;99.90;;;;;;5034825;28;20165;-77
2023/10/28 02:51:51;;;;;;;133.45;122.85;;;10.70;99.90;;;;;;5017150;28;20665;-77
2023/10/28 02:54:17;;;;;;;121.53;111.77;;;10.60;99.90;;;;;;5034674;28;20189;-77
2023/10/28 02:56:42;;;;;;;134.90;124.43;;;10.60;99.90;;;;;;5034793;28;20458;-77
2023/10/28 02:59:09;;;;;;;113.40;103.80;;;10.60;99.90;;;;;;5034372;28;20177;-77
2023/10/28 03:01:38;;;;;;;120.60;110.82;;;10.50;99.90;;;;;;5034740;28;20154;-77
2023/10/28 03:04:04;;;;;;;124.60;114.60;;;10.50;99.90;;;;;;5034309;28;20182;-77
2023/10/28 03:06:30;;;;;;;120.50;110.90;;;10.60;99.90;;;;;;5034429;28;20165;-77
2023/10/28 03:08:55;;;;;;;133.63;122.82;;;10.50;99.90;;;;;;5017041;28;20193;-77
2023/10/28 03:11:21;;;;;;;115.63;105.93;;;10.50;99.90;;;;;;5034824;28;20170;-77
2023/10/28 03:13:47;;;;;;;135.87;124.77;;;10.50;99.90;;;;;;5034497;28;20189;-77
2023/10/28 03:16:12;;;;;;;126.17;115.53;;;10.50;99.90;;;;;;5034602;28;20204;-77
2023/10/28 03:18:38;;;;;;;113.13;103.53;;;10.50;99.90;;;;;;5035454;28;20169;-77
2023/10/28 03:21:06;;;;;;;126.87;116.33;;;10.60;99.90;;;;;;5038974;28;20658;-77
2023/10/28 03:23:32;;;;;;;117.95;108.22;;;10.60;99.90;;;;;;5038164;28;20193;-77
2023/10/28 03:25:58;;;;;;;126.03;116.07;;;10.60;99.90;;;;;;5037999;28;20241;-77
2023/10/28 03:28:24;;;;;;;118.10;108.47;;;10.50;99.90;;;;;;5038173;28;20588;-77
2023/10/28 03:30:50;;;;;;;124.53;114.73;;;10.50;99.90;;;;;;5038414;28;20408;-77
2023/10/28 03:33:16;;;;;;;130.07;120.03;;;10.40;99.90;;;;;;5038583;28;20468;-77
2023/10/28 03:35:45;;;;;;;125.40;115.53;;;10.40;99.90;;;;;;5038218;28;20185;-77
2023/10/28 03:38:10;;;;;;;126.65;116.72;;;10.30;99.90;;;;;;5038726;28;20166;-77
2023/10/28 03:40:38;;;;;;;118.60;109.00;;;10.30;99.90;;;;;;5038427;28;20162;-77
2023/10/28 03:43:04;;;;;;;118.57;109.07;;;10.30;99.90;;;;;;5020199;28;20212;-77
2023/10/28 03:45:30;;;;;;;130.20;120.10;;;10.30;99.90;;;;;;5037991;28;20162;-77
2023/10/28 03:47:55;;;;;;;116.80;107.27;;;10.30;99.90;;;;;;5037320;28;20170;-77
2023/10/28 03:50:21;;;;;;;147.20;136.30;;;10.20;99.90;;;;;;5038011;28;20169;-77
2023/10/28 03:52:46;;;;;;;122.23;112.50;;;10.20;99.90;;;;;;5037646;28;20201;-77
2023/10/28 03:55:12;;;;;;;131.10;121.03;;;10.10;99.90;;;;;;5038156;28;20189;-77
2023/10/28 03:57:38;;;;;;;138.70;128.13;;;10.10;99.90;;;;;;5038375;28;20245;-77
2023/10/28 04:00:07;;;;;;;126.37;116.43;;;10.10;99.90;;;;;;5038208;28;20177;-77
2023/10/28 04:02:32;;;;;;;126.78;116.63;;;10.00;99.90;;;;;;5037871;28;20264;-77
2023/10/28 04:04:58;;;;;;;133.97;123.30;;;10.00;99.90;;;;;;5037894;28;20205;-77
2023/10/28 04:07:24;;;;;;;121.20;111.23;;;10.00;99.90;;;;;;5038216;28;20177;-77
2023/10/28 04:09:49;;;;;;;126.77;116.87;;;10.00;99.90;;;;;;5038234;28;20193;-77
2023/10/28 04:12:15;;;;;;;116.37;106.50;;;9.90;99.90;;;;;;5037837;28;20589;-77
2023/10/28 04:14:41;;;;;;;127.57;117.07;;;9.90;99.90;;;;;;5114023;22;20190;-77
2023/10/28 04:17:07;;;;;;;133.63;122.97;;;9.90;99.90;;;;;;5057166;28;20793;-77
2023/10/28 04:19:33;;;;;;;122.37;112.33;;;9.80;99.90;;;;;;5057793;28;20218;-77
2023/10/28 04:21:58;;;;;;;141.63;130.97;;;9.80;99.90;;;;;;5057800;28;20171;-77
2023/10/28 04:24:25;;;;;;;129.57;119.30;;;9.90;99.90;;;;;;5058104;28;20415;-77
2023/10/28 04:26:51;;;;;;;120.18;110.35;;;9.80;99.90;;;;;;5056316;28;20173;-77
2023/10/28 04:29:17;;;;;;;142.97;132.07;;;9.80;99.90;;;;;;5057192;28;20677;-77
2023/10/28 04:31:42;;;;;;;132.30;122.13;;;9.80;99.90;;;;;;5056554;28;20509;-77
2023/10/28 04:34:08;;;;;;;137.20;126.93;;;9.80;99.90;;;;;;5057303;28;20244;-77
2023/10/28 04:36:34;;;;;;;122.13;112.13;;;9.80;99.90;;;;;;5056505;28;20169;-77
2023/10/28 04:39:00;;;;;;;134.03;123.80;;;9.80;99.90;;;;;;5057035;28;20235;-77
2023/10/28 04:41:25;;;;;;;137.77;127.30;;;9.90;99.90;;;;;;5056936;28;20192;-77
2023/10/28 04:43:51;;;;;;;130.00;119.90;;;9.90;99.90;;;;;;5057102;28;20192;-77
2023/10/28 04:46:16;;;;;;;129.90;119.80;;;9.90;99.90;;;;;;5057113;28;20176;-77
2023/10/28 04:48:42;;;;;;;169.40;157.40;;;9.90;99.90;;;;;;5056313;28;20522;-77
2023/10/28 04:51:08;;;;;;;133.67;123.43;;;9.90;99.90;;;;;;5056915;28;20254;-77
2023/10/28 04:53:34;;;;;;;177.30;164.95;;;9.90;99.90;;;;;;5056717;28;20190;-77
2023/10/28 04:56:00;;;;;;;133.65;123.25;;;9.90;99.90;;;;;;5056685;28;20184;-77
2023/10/28 04:58:27;;;;;;;133.97;123.63;;;9.90;99.90;;;;;;5056418;28;20579;-77
2023/10/28 05:00:53;;;;;;;149.00;137.82;;;10.00;99.90;;;;;;5055048;28;20770;-77
2023/10/28 05:03:19;;;;;;;145.20;134.40;;;9.90;99.90;;;;;;5055585;28;20609;-77
2023/10/28 05:05:46;;;;;;;155.20;143.53;;;9.90;99.90;;;;;;5056066;28;20193;-77
2023/10/28 05:08:13;;;;;;;148.93;137.68;;;10.00;99.90;;;;;;5056078;28;20183;-77
2023/10/28 05:10:39;;;;;;;135.05;124.35;;;10.00;99.90;;;;;;5056023;28;20169;-77
2023/10/28 05:13:04;;;;;;;132.10;121.33;;;10.00;99.90;;;;;;5055832;28;20196;-77
2023/10/28 05:15:30;;;;;;;146.60;135.47;;;10.00;99.90;;;;;;5055807;28;20209;-77
2023/10/28 05:17:56;;;;;;;144.70;133.70;;;10.00;99.90;;;;;;5055728;28;20169;-77
2023/10/28 05:20:21;;;;;;;137.27;126.83;;;9.90;99.90;;;;;;5056426;28;20164;-77
2023/10/28 05:22:47;;;;;;;130.20;120.00;;;10.00;99.90;;;;;;5055993;28;20192;-77
2023/10/28 05:25:13;;;;;;;139.00;128.37;;;10.00;99.90;;;;;;5055495;28;20169;-77
2023/10/28 05:27:39;;;;;;;135.65;125.07;;;10.00;99.90;;;;;;5055753;28;20247;-77
2023/10/28 05:30:06;;;;;;;145.63;134.48;;;9.90;99.90;;;;;;5056008;28;20177;-77
2023/10/28 05:32:32;;;;;;;144.23;133.25;;;10.00;99.90;;;;;;5056643;28;20196;-77
2023/10/28 05:34:58;;;;;;;132.83;122.40;;;10.00;99.90;;;;;;5055773;28;20554;-77
2023/10/28 05:37:25;;;;;;;139.88;129.07;;;10.00;99.90;;;;;;5055704;28;20415;-77
2023/10/28 05:39:50;;;;;;;127.72;117.63;;;10.00;99.90;;;;;;5037717;28;20172;-77
2023/10/28 05:42:19;;;;;;;122.40;112.50;;;10.10;99.90;;;;;;5055655;28;20214;-77
2023/10/28 05:44:45;;;;;;;128.07;117.68;;;10.00;99.90;;;;;;5055848;28;20227;-77
2023/10/28 05:47:11;;;;;;;130.97;120.67;;;10.00;99.90;;;;;;5055344;28;20165;-77
2023/10/28 05:49:37;;;;;;;128.90;118.50;;;10.00;99.90;;;;;;5055545;28;20407;-77
2023/10/28 05:52:03;;;;;;;130.40;120.27;;;10.00;99.90;;;;;;5055186;28;20231;-77
2023/10/28 05:54:31;;;;;;;133.68;123.13;;;9.90;99.90;;;;;;5055293;28;20217;-77
2023/10/28 05:56:57;;;;;;;123.88;113.88;;;9.90;99.90;;;;;;5055306;28;20166;-77
2023/10/28 05:59:23;;;;;;;139.68;129.05;;;9.90;99.90;;;;;;5055459;28;20169;-77
2023/10/28 06:01:49;;;;;;;135.67;125.10;;;9.90;99.90;;;;;;5055121;28;20166;-77
2023/10/28 06:04:14;;;;;;;129.17;119.10;;;9.90;99.90;;;;;;5054580;28;20189;-77
2023/10/28 06:06:40;;;;;;;132.30;122.10;;;9.90;99.90;;;;;;5054600;28;20650;-77
2023/10/28 06:09:09;;;;;;;121.67;111.87;;;9.90;99.90;;;;;;5054920;28;20219;-77
2023/10/28 06:11:35;;;;;;;138.65;127.93;;;9.90;99.90;;;;;;5055025;28;20196;-77
2023/10/28 06:14:01;;;;;;;126.80;116.50;;;9.80;99.90;;;;;;5054174;28;20219;-77
2023/10/28 06:16:27;;;;;;;133.03;122.77;;;9.90;99.90;;;;;;5053720;28;20562;-77
2023/10/28 06:18:52;;;;;;;126.00;116.03;;;9.90;99.90;;;;;;5055160;28;20193;-77
2023/10/28 06:21:18;;;;;;;120.47;110.77;;;9.90;99.90;;;;;;5054882;28;20180;-77
2023/10/28 06:23:44;;;;;;;125.83;115.80;;;9.90;99.90;;;;;;5054876;28;20189;-77
2023/10/28 06:26:10;;;;;;;131.77;121.50;;;9.90;99.90;;;;;;5054685;28;20255;-77
2023/10/28 06:28:37;;;;;;;143.95;133.13;;;9.80;99.90;;;;;;5054883;28;20152;-77
2023/10/28 06:31:02;;;;;;;143.60;132.50;;;9.80;99.90;;;;;;5053673;28;20167;-77
2023/10/28 06:33:28;;;;;;;151.57;140.60;;;9.80;99.90;;;;;;5053228;28;20188;-77
2023/10/28 06:35:54;;;;;;;145.23;134.37;;;9.90;99.90;;;;;;5052905;28;20219;-77
2023/10/28 06:38:21;;;;;;;146.88;135.88;;;9.90;99.90;;;;;;5052908;28;20165;-76
2023/10/28 06:40:47;;;;;;;188.77;175.93;;;9.90;99.90;;;;;;5052881;28;20157;-77
2023/10/28 06:43:14;;;;;;;221.45;207.23;;;9.90;99.90;;;;;;5053123;28;20213;-77
2023/10/28 06:45:41;;;;;;;200.55;187.15;;;9.90;99.90;;;;;;5053233;28;20168;-77
2023/10/28 06:48:07;;;;;;;154.55;143.27;;;10.00;99.90;;;;;;5052950;28;20648;-77
2023/10/28 06:50:32;;;;;;;158.38;147.07;;;10.10;99.90;;;;;;5051574;28;20276;-77
2023/10/28 06:52:59;;;;;;;209.67;196.20;;;10.10;99.90;;;;;;5035277;28;20287;-76
2023/10/28 06:55:26;;;;;;;204.40;190.98;;;10.10;99.90;;;;;;5038582;28;20641;-77
2023/10/28 06:57:52;;;;;;;221.70;207.73;;;10.10;99.90;;;;;;5057175;28;20157;-77
2023/10/28 07:00:21;;;;;;;209.23;195.70;;;10.10;99.90;;;;;;5057191;28;20164;-77
2023/10/28 07:02:46;;;;;;;239.20;224.68;;;10.10;99.90;;;;;;5056928;28;20454;-77
2023/10/28 07:05:14;;;;;;;199.83;186.37;;;10.20;99.90;;;;;;5056668;28;20161;-76
2023/10/28 07:07:40;;;;;;;207.25;193.70;;;10.20;99.90;;;;;;5056706;28;20161;-77
2023/10/28 07:10:07;;;;;;;207.43;193.80;;;10.20;99.90;;;;;;5056735;28;20188;-77
2023/10/28 07:12:33;;;;;;;209.15;195.48;;;10.30;99.90;;;;;;5056507;28;20592;-76
2023/10/28 07:14:59;;;;;;;216.90;203.23;;;10.30;99.90;;;;;;5056316;28;20204;-77
2023/10/28 07:17:25;;;;;;;199.43;186.27;;;10.30;99.90;;;;;;5056832;28;20375;-77
2023/10/28 07:19:54;;;;;;;170.63;159.00;;;10.30;99.90;;;;;;5056631;28;20168;-76
2023/10/28 07:22:20;;;;;;;178.27;166.10;;;10.40;99.90;;;;;;5056139;28;20411;-76
2023/10/28 07:24:49;;;;;;;175.73;163.93;;;10.40;99.90;;;;;;5056292;28;20174;-76
2023/10/28 07:27:16;;;;;;;206.30;192.85;;;10.40;99.90;;;;;;5056172;28;20495;-76
2023/10/28 07:29:42;;;;;;;219.80;206.00;;;10.40;99.90;;;;;;5056120;28;20173;-76
2023/10/28 07:32:09;;;;;;;215.23;201.57;;;10.40;99.90;;;;;;5056330;28;20207;-76
2023/10/28 07:34:35;;;;;;;223.15;209.25;;;10.40;99.90;;;;;;5056000;28;20224;-76
2023/10/28 07:37:03;;;;;;;198.55;185.27;;;10.40;99.90;;;;;;5056074;28;20189;-76
2023/10/28 07:39:29;;;;;;;197.40;184.60;;;10.40;99.90;;;;;;5056216;28;20189;-76
2023/10/28 07:41:55;;;;;;;174.80;162.70;;;10.50;99.90;;;;;;5056252;28;20219;-76
2023/10/28 07:44:21;;;;;;;146.77;135.93;;;10.50;99.90;;;;;;5055794;28;20646;-76
2023/10/28 07:46:46;;;;;;;155.77;144.70;;;10.50;99.90;;;;;;5055876;28;20168;-76
2023/10/28 07:49:12;;;;;;;208.47;194.87;;;10.40;99.90;;;;;;5055829;28;20171;-76
2023/10/28 07:51:39;;;;;;;222.40;208.30;;;10.40;99.90;;;;;;5055996;28;20169;-76
2023/10/28 07:54:06;;;;;;;195.07;181.65;;;10.40;99.90;;;;;;5055838;28;20600;-76
2023/10/28 07:56:32;;;;;;;201.93;188.57;;;10.40;99.90;;;;;;5056210;28;20177;-76
2023/10/28 07:58:59;;;;;;;213.18;199.48;;;10.50;99.90;;;;;;5055837;28;20165;-76
2023/10/28 08:01:27;;;;;;;212.57;199.00;;;10.50;99.90;;;;;;5037679;28;20169;-76
2023/10/28 08:03:53;;;;;;;206.98;193.52;;;10.50;99.90;;;;;;5037561;28;20196;-76
2023/10/28 08:06:19;;;;;;;206.70;193.23;;;10.60;99.90;;;;;;5055395;28;20542;-76
2023/10/28 08:08:46;;;;;;;212.07;198.38;;;10.60;99.90;;;;;;5055647;28;20170;-76
2023/10/28 08:11:13;;;;;;;228.65;214.40;;;10.60;99.90;;;;;;5055637;28;20199;-76
2023/10/28 08:13:39;;;;;;;230.10;215.85;;;10.60;99.90;;;;;;5055269;28;20189;-76
2023/10/28 08:16:09;;;;;;;214.68;201.18;;;10.70;99.90;;;;;;5055146;28;20197;-76
2023/10/28 08:18:35;;;;;;;221.50;207.50;;;10.70;99.90;;;;;;5055230;28;20219;-76
2023/10/28 08:21:01;;;;;;;211.00;197.23;;;10.70;99.90;;;;;;5055516;28;20167;-76
2023/10/28 08:23:28;;;;;;;208.20;194.83;;;10.70;99.90;;;;;;5055356;28;20185;-76
2023/10/28 08:25:56;;;;;;;207.23;193.90;;;10.80;99.90;;;;;;5055150;28;20161;-76
2023/10/28 08:28:22;;;;;;;233.35;218.95;;;10.80;99.90;;;;;;5055079;28;20166;-76
2023/10/28 08:30:47;;;;;;;199.30;186.13;;;10.80;99.90;;;;;;5055598;28;20165;-76
2023/10/28 08:33:13;;;;;;;212.47;198.83;;;10.90;99.90;;;;;;5054991;28;20268;-76
2023/10/28 08:35:38;;;;;;;206.23;192.73;;;10.90;99.90;;;;;;5055422;28;20181;-76
2023/10/28 08:38:07;;;;;;;215.53;201.77;;;10.90;99.90;;;;;;5054904;28;20172;-76
2023/10/28 08:40:34;;;;;;;202.77;189.57;;;11.00;99.90;;;;;;5054873;28;20166;-76
2023/10/28 08:43:00;;;;;;;214.45;200.80;;;11.00;99.90;;;;;;5054786;28;20184;-76
2023/10/28 08:45:30;;;;;;;205.37;191.73;;;11.10;99.90;;;;;;5054772;28;20170;-76
2023/10/28 08:47:59;;;;;;;201.18;188.43;;;11.10;99.90;;;;;;5054665;28;20407;-76
2023/10/28 08:50:25;;;;;;;205.65;192.30;;;11.10;99.90;;;;;;5054635;28;20172;-76
2023/10/28 08:52:56;;;;;;;194.13;181.17;;;11.20;99.90;;;;;;5053402;28;20185;-76
2023/10/28 08:55:24;;;;;;;193.38;180.15;;;11.30;99.90;;;;;;5054487;28;20835;-77
2023/10/28 08:57:51;;;;;;;211.32;197.70;;;11.30;99.90;;;;;;5054526;28;20243;-76
2023/10/28 09:00:23;;;;;;;211.43;197.73;;;11.30;99.90;;;;;;5054443;28;20253;-76
2023/10/28 09:02:49;;;;;;;202.23;188.70;;;11.40;99.90;;;;;;5054642;28;20192;-76
2023/10/28 09:05:19;;;;;;;184.47;172.27;;;11.40;99.90;;;;;;5054376;28;20512;-76
2023/10/28 09:07:48;;;;;;;181.10;168.77;;;11.40;99.90;;;;;;5053098;28;20458;-76
2023/10/28 09:10:16;;;;;;;202.75;189.45;;;11.50;99.90;;;;;;5054355;28;20190;-76
2023/10/28 09:12:43;;;;;;;197.73;184.93;;;11.50;99.90;;;;;;5054180;28;20196;-76
2023/10/28 09:15:11;;;;;;;205.30;191.82;;;11.50;99.90;;;;;;5054119;28;20662;-76
2023/10/28 09:17:39;;;;;;;196.52;183.38;;;11.60;99.90;;;;;;5053705;28;20580;-77
2023/10/28 09:20:09;;;;;;;162.82;150.98;;;11.70;99.90;;;;;;5054425;28;20247;-77
2023/10/28 09:22:38;;;;;;;179.60;167.48;;;11.70;99.90;;;;;;5054057;28;20193;-77
2023/10/28 09:25:05;;;;;;;189.48;176.50;;;11.80;99.90;;;;;;5054079;28;20256;-77
2023/10/28 09:27:32;;;;;;;181.05;168.88;;;11.80;99.90;;;;;;5054400;28;20638;-77
2023/10/28 09:30:10;;;;;;;176.02;164.10;;;11.90;99.90;;;;;;5052674;28;20165;-77
2023/10/28 09:32:37;;;;;;;162.85;151.02;;;12.00;99.90;;;;;;5053903;28;20276;-76
2023/10/28 09:35:07;;;;;;;181.52;169.27;;;12.10;99.90;;;;;;5053880;28;20666;-77
2023/10/28 09:37:38;;;;;;;171.35;159.55;;;12.20;99.90;;;;;;5036179;28;20677;-77
2023/10/28 09:40:05;;;;;;;171.80;159.48;;;12.30;99.90;;;;;;5053770;28;20173;-77
2023/10/28 09:42:33;;;;;;;154.05;142.43;;;12.40;99.90;;;;;;5052637;28;20189;-77
2023/10/28 09:45:06;;;;;;;171.70;159.73;;;12.50;99.90;;;;;;5054410;28;20169;-77
2023/10/28 09:47:39;;;;;;;153.68;142.27;;;12.60;99.90;;;;;;5054099;28;20181;-77
2023/10/28 09:50:09;;;;;;;154.75;143.43;;;12.70;99.90;;;;;;5054249;28;20181;-77
2023/10/28 09:52:41;;;;;;;145.50;134.70;;;12.80;99.90;;;;;;5054101;28;20238;-77
2023/10/28 09:55:13;;;;;;;130.75;120.47;;;13.00;99.90;;;;;;5054099;28;20177;-77
2023/10/28 09:57:40;;;;;;;127.65;117.20;;;13.00;99.90;;;;;;5052737;28;20165;-77
2023/10/28 10:00:18;;;;;;;128.20;117.82;;;13.00;99.90;;;;;;5054221;28;20187;-77
2023/10/28 10:03:12;;;;;;;118.68;108.70;;;13.10;99.90;;;;;;5054192;28;20180;-77
2023/10/28 10:05:43;;;;;;;115.72;106.15;;;13.30;99.90;;;;;;5051738;28;20318;-77
2023/10/28 10:08:24;;;;;;;92.03;82.85;;;13.40;99.90;;;;;;5053967;28;20153;-77
2023/10/28 10:10:53;;;;;;;83.67;75.30;;;13.70;99.90;;;;;;5053988;28;20165;-77
2023/10/28 10:13:19;;;;;;;119.30;108.93;;;13.80;99.90;;;;;;5053450;28;20439;-77
2023/10/28 10:16:03;;;;;;;120.00;110.30;;;13.90;99.90;;;;;;5053438;28;20463;-77
2023/10/28 10:18:37;;;;;;;131.17;121.00;;;13.90;99.90;;;;;;5053647;28;20376;-77
2023/10/28 10:21:14;;;;;;;149.00;138.43;;;14.00;99.90;;;;;;5053549;28;20380;-77
2023/10/28 10:23:45;;;;;;;140.93;130.60;;;14.10;99.90;;;;;;5053451;28;20419;-77
2023/10/28 10:26:25;;;;;;;128.87;119.03;;;14.30;99.90;;;;;;5053504;28;20404;-77
2023/10/28 10:28:53;;;;;;;106.80;97.70;;;14.50;99.90;;;;;;5053034;28;20422;-77
2023/10/28 10:31:22;;;;;;;98.30;89.37;;;14.60;99.90;;;;;;5035548;28;20419;-77
2023/10/28 10:34:07;;;;;;;72.63;65.17;;;14.70;99.90;;;;;;5053634;28;20426;-77
2023/10/28 10:36:41;;;;;;;65.07;52.37;;;14.60;99.90;;;;;;5053765;28;20394;-77
2023/10/28 10:39:20;;;;;;;62.63;49.63;;;14.50;99.90;;;;;;5053483;28;20380;-77
2023/10/28 10:41:53;;;;;;;65.27;52.60;;;14.20;99.90;;;;;;5035538;28;20430;-77
2023/10/28 10:44:33;;;;;;;71.37;59.40;;;13.90;99.90;;;;;;5053500;28;20485;-77
2023/10/28 10:47:00;;;;;;;70.37;62.13;;;13.70;99.90;;;;;;5053497;28;20407;-77
2023/10/28 10:49:27;;;;;;;75.90;68.20;;;13.60;99.90;;;;;;5053420;28;20471;-77
2023/10/28 10:51:52;;;;;;;87.57;79.40;;;13.60;99.90;;;;;;5053282;28;20403;-77
2023/10/28 10:54:19;;;;;;;113.60;103.63;;;13.50;99.90;;;;;;5053118;28;20820;-77
2023/10/28 10:56:45;;;;;;;90.27;81.57;;;13.40;99.90;;;;;;5053564;28;20403;-77
2023/10/28 10:59:11;;;;;;;94.10;85.33;;;13.50;99.90;;;;;;5035324;28;20404;-77
2023/10/28 11:01:40;;;;;;;83.07;74.83;;;13.50;99.90;;;;;;5053453;28;20411;-77
2023/10/28 11:04:07;;;;;;;88.57;80.23;;;13.50;99.90;;;;;;5053483;28;20420;-77
2023/10/28 11:06:34;;;;;;;82.93;74.57;;;13.60;99.90;;;;;;5052930;28;20411;-77
2023/10/28 11:09:03;;;;;;;75.07;67.22;;;13.60;99.90;;;;;;5053064;28;20407;-77
2023/10/28 11:11:29;;;;;;;72.53;64.20;;;13.70;99.90;;;;;;5053208;28;20173;-77
2023/10/28 11:13:56;;;;;;;68.27;58.07;;;13.80;99.90;;;;;;5051604;28;20470;-77
2023/10/28 11:16:26;;;;;;;65.77;51.57;;;13.80;99.90;;;;;;5052894;28;20451;-77
2023/10/28 11:18:52;;;;;;;68.50;60.83;;;13.90;99.90;;;;;;5053246;28;20384;-77
2023/10/28 11:21:23;;;;;;;65.90;55.67;;;13.90;99.90;;;;;;5052656;28;20402;-77
2023/10/28 11:23:49;;;;;;;67.13;52.27;;;14.00;99.90;;;;;;5053021;28;20189;-77
2023/10/28 11:26:19;;;;;;;64.43;49.67;;;13.90;99.90;;;;;;5052865;28;20403;-77
2023/10/28 11:28:45;;;;;;;69.00;61.80;;;13.90;99.90;;;;;;5052647;28;20414;-77
2023/10/28 11:31:11;;;;;;;63.80;46.20;;;14.00;99.90;;;;;;5053020;28;20411;-77
2023/10/28 11:33:37;;;;;;;61.30;46.60;;;14.00;99.90;;;;;;5052610;28;20442;-77
2023/10/28 11:36:04;;;;;;;60.30;42.70;;;13.90;99.90;;;;;;5052618;28;20952;-77
2023/10/28 11:38:33;;;;;;;60.63;45.23;;;13.90;99.90;;;;;;5052931;28;20400;-77
2023/10/28 11:41:04;;;;;;;62.57;49.40;;;13.90;99.90;;;;;;5055724;28;20488;-77
2023/10/28 11:43:30;;;;;;;61.93;46.53;;;14.00;99.90;;;;;;5056432;28;20469;-77
2023/10/28 11:45:59;;;;;;;61.57;39.07;;;14.10;99.90;;;;;;5056274;28;20411;-77
2023/10/28 11:48:40;;;;;;;61.00;40.13;;;14.20;99.90;;;;;;5055286;28;20541;-77
2023/10/28 11:51:09;;;;;;;59.43;41.27;;;14.20;99.90;;;;;;5038048;28;20411;-77
2023/10/28 11:53:37;;;;;;;70.97;50.07;;;14.10;99.90;;;;;;5054690;28;20448;-77
2023/10/28 11:56:03;;;;;;;59.67;45.13;;;14.20;99.90;;;;;;5055951;28;20956;-77
2023/10/28 11:58:29;;;;;;;62.77;45.73;;;14.20;99.90;;;;;;5056280;28;20408;-77
2023/10/28 12:00:55;;;;;;;60.20;44.17;;;14.30;99.90;;;;;;5055789;28;20804;-77
2023/10/28 12:03:21;;;;;;;62.03;36.67;;;14.30;99.90;;;;;;5055990;28;20615;-77
2023/10/28 12:05:47;;;;;;;57.67;35.70;;;14.20;99.90;;;;;;5055742;28;20442;-77
2023/10/28 12:08:13;;;;;;;60.83;38.90;;;14.40;99.90;;;;;;5055728;28;20396;-77
2023/10/28 12:10:43;;;;;;;56.50;35.63;;;14.50;99.90;;;;;;5055797;28;20880;-77
2023/10/28 12:13:18;;;;;;;55.43;35.27;;;14.40;99.90;;;;;;5055439;28;20453;-77